sensor_id;sensor_type;location;lat;lon;timestamp;temperature;humidity
20911;DHT22;10615;42.702;23.314;2024-01-27T00:00:00;5.30;74.20
20911;DHT22;10615;42.702;23.314;2024-01-27T00:01:01;5.30;74.00
20911;DHT22;10615;42.702;23.314;2024-01-27T00:02:02;5.30;73.90
20911;DHT22;10615;42.702;23.314;2024-01-27T00:03:04;5.30;73.70
20911;DHT22;10615;42.702;23.314;2024-01-27T00:04:04;5.30;73.60
20911;DHT22;10615;42.702;23.314;2024-01-27T00:05:05;5.30;73.60
20911;DHT22;10615;42.702;23.314;2024-01-27T00:06:06;5.30;73.60
20911;DHT22;10615;42.702;23.314;2024-01-27T00:07:07;5.20;73.50
20911;DHT22;10615;42.702;23.314;2024-01-27T00:08:08;5.20;73.60
20911;DHT22;10615;42.702;23.314;2024-01-27T00:09:09;5.20;73.60
20911;DHT22;10615;42.702;23.314;2024-01-27T00:10:09;5.20;73.70
20911;DHT22;10615;42.702;23.314;2024-01-27T00:11:11;5.10;73.70
20911;DHT22;10615;42.702;23.314;2024-01-27T00:12:12;5.10;73.70
20911;DHT22;10615;42.702;23.314;2024-01-27T00:13:13;5.10;73.80
20911;DHT22;10615;42.702;23.314;2024-01-27T00:14:13;5.10;73.80
20911;DHT22;10615;42.702;23.314;2024-01-27T00:15:14;5.10;74.00
20911;DHT22;10615;42.702;23.314;2024-01-27T00:16:15;5.10;74.10
20911;DHT22;10615;42.702;23.314;2024-01-27T00:17:16;5.20;74.30
20911;DHT22;10615;42.702;23.314;2024-01-27T00:18:16;5.20;74.40
20911;DHT22;10615;42.702;23.314;2024-01-27T00:19:17;5.20;74.50
20911;DHT22;10615;42.702;23.314;2024-01-27T00:20:18;5.30;74.40
20911;DHT22;10615;42.702;23.314;2024-01-27T00:21:19;5.30;74.40
20911;DHT22;10615;42.702;23.314;2024-01-27T00:22:20;5.40;74.40
20911;DHT22;10615;42.702;23.314;2024-01-27T00:23:21;5.40;74.20
20911;DHT22;10615;42.702;23.314;2024-01-27T00:24:22;5.40;74.20
20911;DHT22;10615;42.702;23.314;2024-01-27T00:25:23;5.50;74.20
20911;DHT22;10615;42.702;23.314;2024-01-27T00:26:23;5.50;73.90
20911;DHT22;10615;42.702;23.314;2024-01-27T00:27:24;5.50;73.60
20911;DHT22;10615;42.702;23.314;2024-01-27T00:28:25;5.50;73.40
20911;DHT22;10615;42.702;23.314;2024-01-27T00:29:26;5.50;73.20
20911;DHT22;10615;42.702;23.314;2024-01-27T00:30:26;5.40;73.10
20911;DHT22;10615;42.702;23.314;2024-01-27T00:31:27;5.40;73.20
20911;DHT22;10615;42.702;23.314;2024-01-27T00:32:28;5.30;73.20
20911;DHT22;10615;42.702;23.314;2024-01-27T00:33:29;5.30;73.30
20911;DHT22;10615;42.702;23.314;2024-01-27T00:34:29;5.30;73.40
20911;DHT22;10615;42.702;23.314;2024-01-27T00:35:30;5.30;73.60
20911;DHT22;10615;42.702;23.314;2024-01-27T00:36:31;5.20;73.60
20911;DHT22;10615;42.702;23.314;2024-01-27T00:37:32;5.20;73.70
20911;DHT22;10615;42.702;23.314;2024-01-27T00:38:32;5.20;73.80
20911;DHT22;10615;42.702;23.314;2024-01-27T00:39:33;5.20;74.00
20911;DHT22;10615;42.702;23.314;2024-01-27T00:40:34;5.20;74.00
20911;DHT22;10615;42.702;23.314;2024-01-27T00:41:35;5.10;74.00
20911;DHT22;10615;42.702;23.314;2024-01-27T00:42:36;5.10;74.10
20911;DHT22;10615;42.702;23.314;2024-01-27T00:43:36;5.10;74.20
20911;DHT22;10615;42.702;23.314;2024-01-27T00:44:37;5.00;74.20
20911;DHT22;10615;42.702;23.314;2024-01-27T00:45:38;5.10;74.30
20911;DHT22;10615;42.702;23.314;2024-01-27T00:46:40;5.10;74.40
20911;DHT22;10615;42.702;23.314;2024-01-27T00:47:41;5.00;74.50
20911;DHT22;10615;42.702;23.314;2024-01-27T00:48:41;5.00;74.50
20911;DHT22;10615;42.702;23.314;2024-01-27T00:49:42;5.00;74.60
20911;DHT22;10615;42.702;23.314;2024-01-27T00:50:43;5.10;74.70
20911;DHT22;10615;42.702;23.314;2024-01-27T00:51:44;5.10;74.80
20911;DHT22;10615;42.702;23.314;2024-01-27T00:52:45;5.10;74.70
20911;DHT22;10615;42.702;23.314;2024-01-27T00:53:45;5.00;74.70
20911;DHT22;10615;42.702;23.314;2024-01-27T00:54:46;5.00;74.70
20911;DHT22;10615;42.702;23.314;2024-01-27T00:55:47;5.00;74.80
20911;DHT22;10615;42.702;23.314;2024-01-27T00:56:48;5.10;75.00
20911;DHT22;10615;42.702;23.314;2024-01-27T00:57:49;5.00;74.90
20911;DHT22;10615;42.702;23.314;2024-01-27T00:58:50;5.00;75.00
20911;DHT22;10615;42.702;23.314;2024-01-27T00:59:50;5.10;75.20
20911;DHT22;10615;42.702;23.314;2024-01-27T01:00:51;5.00;75.10
20911;DHT22;10615;42.702;23.314;2024-01-27T01:01:52;5.10;75.20
20911;DHT22;10615;42.702;23.314;2024-01-27T01:02:53;5.10;75.20
20911;DHT22;10615;42.702;23.314;2024-01-27T01:03:54;5.10;75.20
20911;DHT22;10615;42.702;23.314;2024-01-27T01:04:54;5.10;75.20
20911;DHT22;10615;42.702;23.314;2024-01-27T01:05:55;5.10;75.20
20911;DHT22;10615;42.702;23.314;2024-01-27T01:06:56;5.10;75.20
20911;DHT22;10615;42.702;23.314;2024-01-27T01:07:57;5.10;75.20
20911;DHT22;10615;42.702;23.314;2024-01-27T01:08:57;5.10;75.20
20911;DHT22;10615;42.702;23.314;2024-01-27T01:09:58;5.10;75.20
20911;DHT22;10615;42.702;23.314;2024-01-27T01:10:59;5.10;75.20
20911;DHT22;10615;42.702;23.314;2024-01-27T01:12:00;5.10;75.40
20911;DHT22;10615;42.702;23.314;2024-01-27T01:13:01;5.10;75.50
20911;DHT22;10615;42.702;23.314;2024-01-27T01:14:01;5.10;75.50
20911;DHT22;10615;42.702;23.314;2024-01-27T01:15:02;5.10;75.60
20911;DHT22;10615;42.702;23.314;2024-01-27T01:16:03;5.20;75.70
20911;DHT22;10615;42.702;23.314;2024-01-27T01:17:04;5.20;75.70
20911;DHT22;10615;42.702;23.314;2024-01-27T01:18:05;5.20;75.70
20911;DHT22;10615;42.702;23.314;2024-01-27T01:19:06;5.20;75.70
20911;DHT22;10615;42.702;23.314;2024-01-27T01:20:07;5.20;75.70
20911;DHT22;10615;42.702;23.314;2024-01-27T01:21:08;5.20;75.70
20911;DHT22;10615;42.702;23.314;2024-01-27T01:22:09;5.20;75.90
20911;DHT22;10615;42.702;23.314;2024-01-27T01:23:10;5.20;75.90
20911;DHT22;10615;42.702;23.314;2024-01-27T01:24:10;5.20;75.90
20911;DHT22;10615;42.702;23.314;2024-01-27T01:25:12;5.20;75.90
20911;DHT22;10615;42.702;23.314;2024-01-27T01:26:12;5.20;76.00
20911;DHT22;10615;42.702;23.314;2024-01-27T01:27:13;5.20;76.00
20911;DHT22;10615;42.702;23.314;2024-01-27T01:28:14;5.20;76.00
20911;DHT22;10615;42.702;23.314;2024-01-27T01:29:16;5.20;76.00
20911;DHT22;10615;42.702;23.314;2024-01-27T01:30:17;5.20;76.10
20911;DHT22;10615;42.702;23.314;2024-01-27T01:31:17;5.20;76.10
20911;DHT22;10615;42.702;23.314;2024-01-27T01:32:18;5.20;76.10
20911;DHT22;10615;42.702;23.314;2024-01-27T01:33:19;5.20;76.20
20911;DHT22;10615;42.702;23.314;2024-01-27T01:34:20;5.20;76.20
20911;DHT22;10615;42.702;23.314;2024-01-27T01:35:21;5.20;76.30
20911;DHT22;10615;42.702;23.314;2024-01-27T01:36:22;5.20;76.30
20911;DHT22;10615;42.702;23.314;2024-01-27T01:37:22;5.20;76.30
20911;DHT22;10615;42.702;23.314;2024-01-27T01:38:23;5.20;76.40
20911;DHT22;10615;42.702;23.314;2024-01-27T01:39:24;5.20;76.40
20911;DHT22;10615;42.702;23.314;2024-01-27T01:40:25;5.20;76.50
20911;DHT22;10615;42.702;23.314;2024-01-27T01:41:25;5.20;76.50
20911;DHT22;10615;42.702;23.314;2024-01-27T01:42:26;5.20;76.50
20911;DHT22;10615;42.702;23.314;2024-01-27T01:43:27;5.20;76.40
20911;DHT22;10615;42.702;23.314;2024-01-27T01:44:30;5.20;76.40
20911;DHT22;10615;42.702;23.314;2024-01-27T01:45:31;5.20;76.30
20911;DHT22;10615;42.702;23.314;2024-01-27T01:46:32;5.20;76.30
20911;DHT22;10615;42.702;23.314;2024-01-27T01:47:33;5.20;76.30
20911;DHT22;10615;42.702;23.314;2024-01-27T01:48:34;5.20;76.30
20911;DHT22;10615;42.702;23.314;2024-01-27T01:49:36;5.20;76.40
20911;DHT22;10615;42.702;23.314;2024-01-27T01:50:36;5.20;76.30
20911;DHT22;10615;42.702;23.314;2024-01-27T01:51:38;5.20;76.30
20911;DHT22;10615;42.702;23.314;2024-01-27T01:52:39;5.20;76.30
20911;DHT22;10615;42.702;23.314;2024-01-27T01:53:40;5.20;76.40
20911;DHT22;10615;42.702;23.314;2024-01-27T01:54:41;5.20;76.30
20911;DHT22;10615;42.702;23.314;2024-01-27T01:55:42;5.20;76.40
20911;DHT22;10615;42.702;23.314;2024-01-27T01:56:43;5.20;76.40
20911;DHT22;10615;42.702;23.314;2024-01-27T01:57:44;5.20;76.40
20911;DHT22;10615;42.702;23.314;2024-01-27T01:58:45;5.20;77.20
20911;DHT22;10615;42.702;23.314;2024-01-27T01:59:45;5.30;76.30
20911;DHT22;10615;42.702;23.314;2024-01-27T02:00:46;5.30;76.10
20911;DHT22;10615;42.702;23.314;2024-01-27T02:01:47;5.20;76.00
20911;DHT22;10615;42.702;23.314;2024-01-27T02:02:48;5.30;75.90
20911;DHT22;10615;42.702;23.314;2024-01-27T02:03:58;5.30;75.90
20911;DHT22;10615;42.702;23.314;2024-01-27T02:04:59;5.30;75.60
20911;DHT22;10615;42.702;23.314;2024-01-27T02:06:00;5.30;75.60
20911;DHT22;10615;42.702;23.314;2024-01-27T02:07:00;5.30;75.40
20911;DHT22;10615;42.702;23.314;2024-01-27T02:08:01;5.30;75.40
20911;DHT22;10615;42.702;23.314;2024-01-27T02:09:04;5.30;75.30
20911;DHT22;10615;42.702;23.314;2024-01-27T02:10:16;5.40;75.30
20911;DHT22;10615;42.702;23.314;2024-01-27T02:11:17;5.40;75.20
20911;DHT22;10615;42.702;23.314;2024-01-27T02:12:18;5.40;75.00
20911;DHT22;10615;42.702;23.314;2024-01-27T02:13:23;5.40;74.90
20911;DHT22;10615;42.702;23.314;2024-01-27T02:14:23;5.40;74.70
20911;DHT22;10615;42.702;23.314;2024-01-27T02:15:27;5.40;74.70
20911;DHT22;10615;42.702;23.314;2024-01-27T02:16:27;5.40;75.60
20911;DHT22;10615;42.702;23.314;2024-01-27T02:17:28;5.40;74.50
20911;DHT22;10615;42.702;23.314;2024-01-27T02:18:29;5.40;74.40
20911;DHT22;10615;42.702;23.314;2024-01-27T02:19:30;5.50;74.40
20911;DHT22;10615;42.702;23.314;2024-01-27T02:20:30;5.50;74.20
20911;DHT22;10615;42.702;23.314;2024-01-27T02:21:31;5.50;74.20
20911;DHT22;10615;42.702;23.314;2024-01-27T02:22:33;5.50;74.10
20911;DHT22;10615;42.702;23.314;2024-01-27T02:23:34;5.50;74.00
20911;DHT22;10615;42.702;23.314;2024-01-27T02:24:35;5.50;73.90
20911;DHT22;10615;42.702;23.314;2024-01-27T02:25:36;5.50;73.90
20911;DHT22;10615;42.702;23.314;2024-01-27T02:26:36;5.50;73.90
20911;DHT22;10615;42.702;23.314;2024-01-27T02:27:37;5.50;73.90
20911;DHT22;10615;42.702;23.314;2024-01-27T02:28:38;5.50;73.80
20911;DHT22;10615;42.702;23.314;2024-01-27T02:29:39;5.50;73.80
20911;DHT22;10615;42.702;23.314;2024-01-27T02:30:39;5.60;73.70
20911;DHT22;10615;42.702;23.314;2024-01-27T02:31:40;5.60;73.70
20911;DHT22;10615;42.702;23.314;2024-01-27T02:32:41;5.50;73.70
20911;DHT22;10615;42.702;23.314;2024-01-27T02:33:42;5.60;73.80
20911;DHT22;10615;42.702;23.314;2024-01-27T02:34:42;5.50;73.80
20911;DHT22;10615;42.702;23.314;2024-01-27T02:35:43;5.50;73.70
20911;DHT22;10615;42.702;23.314;2024-01-27T02:36:44;5.50;73.70
20911;DHT22;10615;42.702;23.314;2024-01-27T02:37:45;5.50;73.80
20911;DHT22;10615;42.702;23.314;2024-01-27T02:38:45;5.50;73.80
20911;DHT22;10615;42.702;23.314;2024-01-27T02:39:46;5.50;73.70
20911;DHT22;10615;42.702;23.314;2024-01-27T02:40:47;5.50;73.70
20911;DHT22;10615;42.702;23.314;2024-01-27T02:41:48;5.50;73.80
20911;DHT22;10615;42.702;23.314;2024-01-27T02:42:49;5.50;73.80
20911;DHT22;10615;42.702;23.314;2024-01-27T02:43:49;5.50;73.70
20911;DHT22;10615;42.702;23.314;2024-01-27T02:44:50;5.50;73.70
20911;DHT22;10615;42.702;23.314;2024-01-27T02:45:51;5.50;73.80
20911;DHT22;10615;42.702;23.314;2024-01-27T02:46:52;5.50;73.80
20911;DHT22;10615;42.702;23.314;2024-01-27T02:47:52;5.40;73.90
20911;DHT22;10615;42.702;23.314;2024-01-27T02:48:53;5.40;73.90
20911;DHT22;10615;42.702;23.314;2024-01-27T02:49:54;5.40;73.90
20911;DHT22;10615;42.702;23.314;2024-01-27T02:50:55;5.40;74.00
20911;DHT22;10615;42.702;23.314;2024-01-27T02:51:55;5.40;74.00
20911;DHT22;10615;42.702;23.314;2024-01-27T02:52:56;5.40;74.10
20911;DHT22;10615;42.702;23.314;2024-01-27T02:53:57;5.40;74.20
20911;DHT22;10615;42.702;23.314;2024-01-27T02:54:58;5.40;74.20
20911;DHT22;10615;42.702;23.314;2024-01-27T02:55:59;5.40;74.20
20911;DHT22;10615;42.702;23.314;2024-01-27T02:56:59;5.40;74.20
20911;DHT22;10615;42.702;23.314;2024-01-27T02:58:00;5.40;74.20
20911;DHT22;10615;42.702;23.314;2024-01-27T02:59:01;5.50;74.20
20911;DHT22;10615;42.702;23.314;2024-01-27T03:00:03;5.40;74.10
20911;DHT22;10615;42.702;23.314;2024-01-27T03:01:05;5.40;74.00
20911;DHT22;10615;42.702;23.314;2024-01-27T03:02:06;5.40;74.00
20911;DHT22;10615;42.702;23.314;2024-01-27T03:03:07;5.40;74.00
20911;DHT22;10615;42.702;23.314;2024-01-27T03:04:07;5.40;74.10
20911;DHT22;10615;42.702;23.314;2024-01-27T03:05:08;5.40;74.20
20911;DHT22;10615;42.702;23.314;2024-01-27T03:06:09;5.40;74.20
20911;DHT22;10615;42.702;23.314;2024-01-27T03:07:10;5.50;74.30
20911;DHT22;10615;42.702;23.314;2024-01-27T03:08:10;5.40;74.20
20911;DHT22;10615;42.702;23.314;2024-01-27T03:09:11;5.40;74.20
20911;DHT22;10615;42.702;23.314;2024-01-27T03:10:12;5.40;74.20
20911;DHT22;10615;42.702;23.314;2024-01-27T03:11:13;5.40;74.20
20911;DHT22;10615;42.702;23.314;2024-01-27T03:12:14;5.40;74.20
20911;DHT22;10615;42.702;23.314;2024-01-27T03:13:16;5.40;74.20
20911;DHT22;10615;42.702;23.314;2024-01-27T03:14:16;5.50;74.10
20911;DHT22;10615;42.702;23.314;2024-01-27T03:15:17;5.50;73.90
20911;DHT22;10615;42.702;23.314;2024-01-27T03:16:18;5.50;73.80
20911;DHT22;10615;42.702;23.314;2024-01-27T03:17:20;5.50;73.70
20911;DHT22;10615;42.702;23.314;2024-01-27T03:18:21;5.50;73.60
20911;DHT22;10615;42.702;23.314;2024-01-27T03:19:21;5.50;73.60
20911;DHT22;10615;42.702;23.314;2024-01-27T03:20:22;5.50;73.40
20911;DHT22;10615;42.702;23.314;2024-01-27T03:21:23;5.60;73.20
20911;DHT22;10615;42.702;23.314;2024-01-27T03:22:24;5.60;73.00
20911;DHT22;10615;42.702;23.314;2024-01-27T03:23:24;5.60;72.80
20911;DHT22;10615;42.702;23.314;2024-01-27T03:24:25;5.60;72.70
20911;DHT22;10615;42.702;23.314;2024-01-27T03:25:26;5.60;72.60
20911;DHT22;10615;42.702;23.314;2024-01-27T03:26:27;5.70;72.80
20911;DHT22;10615;42.702;23.314;2024-01-27T03:27:28;5.70;72.80
20911;DHT22;10615;42.702;23.314;2024-01-27T03:28:28;5.70;72.80
20911;DHT22;10615;42.702;23.314;2024-01-27T03:29:29;5.70;72.80
20911;DHT22;10615;42.702;23.314;2024-01-27T03:30:30;5.70;72.90
20911;DHT22;10615;42.702;23.314;2024-01-27T03:31:34;5.70;73.10
20911;DHT22;10615;42.702;23.314;2024-01-27T03:32:35;5.80;73.30
20911;DHT22;10615;42.702;23.314;2024-01-27T03:33:36;5.80;73.60
20911;DHT22;10615;42.702;23.314;2024-01-27T03:34:43;5.80;73.70
20911;DHT22;10615;42.702;23.314;2024-01-27T03:35:44;5.80;74.00
20911;DHT22;10615;42.702;23.314;2024-01-27T03:36:48;5.80;74.20
20911;DHT22;10615;42.702;23.314;2024-01-27T03:37:49;5.80;74.40
20911;DHT22;10615;42.702;23.314;2024-01-27T03:38:51;5.80;74.70
20911;DHT22;10615;42.702;23.314;2024-01-27T03:39:52;5.80;74.90
20911;DHT22;10615;42.702;23.314;2024-01-27T03:40:53;5.90;75.10
20911;DHT22;10615;42.702;23.314;2024-01-27T03:41:54;5.90;75.30
20911;DHT22;10615;42.702;23.314;2024-01-27T03:42:54;5.80;75.50
20911;DHT22;10615;42.702;23.314;2024-01-27T03:43:55;5.90;75.60
20911;DHT22;10615;42.702;23.314;2024-01-27T03:44:56;5.90;75.80
20911;DHT22;10615;42.702;23.314;2024-01-27T03:45:57;5.80;75.90
20911;DHT22;10615;42.702;23.314;2024-01-27T03:46:58;5.80;76.00
20911;DHT22;10615;42.702;23.314;2024-01-27T03:47:59;5.90;76.20
20911;DHT22;10615;42.702;23.314;2024-01-27T03:48:59;5.80;76.30
20911;DHT22;10615;42.702;23.314;2024-01-27T03:50:00;5.80;76.30
20911;DHT22;10615;42.702;23.314;2024-01-27T03:51:01;5.80;77.30
20911;DHT22;10615;42.702;23.314;2024-01-27T03:52:04;5.90;76.70
20911;DHT22;10615;42.702;23.314;2024-01-27T03:53:05;5.80;76.90
20911;DHT22;10615;42.702;23.314;2024-01-27T03:54:05;5.90;77.10
20911;DHT22;10615;42.702;23.314;2024-01-27T03:55:07;5.90;77.10
20911;DHT22;10615;42.702;23.314;2024-01-27T03:56:11;5.90;77.30
20911;DHT22;10615;42.702;23.314;2024-01-27T03:57:12;5.90;77.50
20911;DHT22;10615;42.702;23.314;2024-01-27T03:58:13;6.00;77.70
20911;DHT22;10615;42.702;23.314;2024-01-27T03:59:14;5.90;77.70
20911;DHT22;10615;42.702;23.314;2024-01-27T04:00:15;6.00;77.90
20911;DHT22;10615;42.702;23.314;2024-01-27T04:01:16;6.00;78.10
20911;DHT22;10615;42.702;23.314;2024-01-27T04:02:16;5.90;78.20
20911;DHT22;10615;42.702;23.314;2024-01-27T04:03:17;5.90;78.50
20911;DHT22;10615;42.702;23.314;2024-01-27T04:04:18;5.90;78.80
20911;DHT22;10615;42.702;23.314;2024-01-27T04:05:18;5.90;78.90
20911;DHT22;10615;42.702;23.314;2024-01-27T04:06:19;5.90;79.20
20911;DHT22;10615;42.702;23.314;2024-01-27T04:07:20;5.90;79.40
20911;DHT22;10615;42.702;23.314;2024-01-27T04:08:21;5.90;79.50
20911;DHT22;10615;42.702;23.314;2024-01-27T04:09:21;5.90;79.70
20911;DHT22;10615;42.702;23.314;2024-01-27T04:10:23;5.80;79.90
20911;DHT22;10615;42.702;23.314;2024-01-27T04:11:24;5.80;80.20
20911;DHT22;10615;42.702;23.314;2024-01-27T04:12:24;5.80;80.50
20911;DHT22;10615;42.702;23.314;2024-01-27T04:13:25;5.80;80.70
20911;DHT22;10615;42.702;23.314;2024-01-27T04:14:26;5.80;81.00
20911;DHT22;10615;42.702;23.314;2024-01-27T04:15:27;5.70;81.00
20911;DHT22;10615;42.702;23.314;2024-01-27T04:16:28;5.80;81.30
20911;DHT22;10615;42.702;23.314;2024-01-27T04:17:28;5.70;81.50
20911;DHT22;10615;42.702;23.314;2024-01-27T04:18:29;5.80;81.70
20911;DHT22;10615;42.702;23.314;2024-01-27T04:19:30;5.80;81.90
20911;DHT22;10615;42.702;23.314;2024-01-27T04:20:31;5.80;82.10
20911;DHT22;10615;42.702;23.314;2024-01-27T04:21:31;5.90;82.10
20911;DHT22;10615;42.702;23.314;2024-01-27T04:22:33;5.90;82.20
20911;DHT22;10615;42.702;23.314;2024-01-27T04:23:34;5.90;82.10
20911;DHT22;10615;42.702;23.314;2024-01-27T04:24:35;6.00;82.30
20911;DHT22;10615;42.702;23.314;2024-01-27T04:25:36;6.00;82.30
20911;DHT22;10615;42.702;23.314;2024-01-27T04:26:36;6.00;82.20
20911;DHT22;10615;42.702;23.314;2024-01-27T04:27:38;6.10;82.20
20911;DHT22;10615;42.702;23.314;2024-01-27T04:28:42;6.10;82.00
20911;DHT22;10615;42.702;23.314;2024-01-27T04:29:43;6.10;82.60
20911;DHT22;10615;42.702;23.314;2024-01-27T04:30:44;6.10;81.60
20911;DHT22;10615;42.702;23.314;2024-01-27T04:31:45;6.10;81.50
20911;DHT22;10615;42.702;23.314;2024-01-27T04:32:45;6.00;81.50
20911;DHT22;10615;42.702;23.314;2024-01-27T04:33:46;6.00;81.60
20911;DHT22;10615;42.702;23.314;2024-01-27T04:34:47;6.00;81.60
20911;DHT22;10615;42.702;23.314;2024-01-27T04:35:48;6.00;81.70
20911;DHT22;10615;42.702;23.314;2024-01-27T04:36:49;6.00;81.70
20911;DHT22;10615;42.702;23.314;2024-01-27T04:37:49;6.00;81.70
20911;DHT22;10615;42.702;23.314;2024-01-27T04:38:51;6.00;81.90
20911;DHT22;10615;42.702;23.314;2024-01-27T04:39:52;6.00;82.00
20911;DHT22;10615;42.702;23.314;2024-01-27T04:40:53;6.00;82.10
20911;DHT22;10615;42.702;23.314;2024-01-27T04:41:53;6.00;82.20
20911;DHT22;10615;42.702;23.314;2024-01-27T04:42:55;6.10;82.30
20911;DHT22;10615;42.702;23.314;2024-01-27T04:43:55;6.10;82.30
20911;DHT22;10615;42.702;23.314;2024-01-27T04:44:57;6.20;82.40
20911;DHT22;10615;42.702;23.314;2024-01-27T04:45:58;6.20;82.40
20911;DHT22;10615;42.702;23.314;2024-01-27T04:46:59;6.20;82.30
20911;DHT22;10615;42.702;23.314;2024-01-27T04:48:00;6.20;82.20
20911;DHT22;10615;42.702;23.314;2024-01-27T04:49:01;6.20;82.30
20911;DHT22;10615;42.702;23.314;2024-01-27T04:50:02;6.30;82.40
20911;DHT22;10615;42.702;23.314;2024-01-27T04:51:03;6.30;82.30
20911;DHT22;10615;42.702;23.314;2024-01-27T04:52:04;6.30;82.10
20911;DHT22;10615;42.702;23.314;2024-01-27T04:53:06;6.30;82.10
20911;DHT22;10615;42.702;23.314;2024-01-27T04:54:08;6.30;82.10
20911;DHT22;10615;42.702;23.314;2024-01-27T04:55:09;6.30;82.10
20911;DHT22;10615;42.702;23.314;2024-01-27T04:56:10;6.20;82.10
20911;DHT22;10615;42.702;23.314;2024-01-27T04:57:13;6.20;82.10
20911;DHT22;10615;42.702;23.314;2024-01-27T04:58:13;6.20;82.30
20911;DHT22;10615;42.702;23.314;2024-01-27T04:59:14;6.20;82.50
20911;DHT22;10615;42.702;23.314;2024-01-27T05:00:15;6.10;82.70
20911;DHT22;10615;42.702;23.314;2024-01-27T05:01:16;6.10;82.80
20911;DHT22;10615;42.702;23.314;2024-01-27T05:02:18;6.10;83.00
20911;DHT22;10615;42.702;23.314;2024-01-27T05:03:19;6.10;83.10
20911;DHT22;10615;42.702;23.314;2024-01-27T05:04:19;6.10;83.40
20911;DHT22;10615;42.702;23.314;2024-01-27T05:05:20;6.10;83.50
20911;DHT22;10615;42.702;23.314;2024-01-27T05:06:21;6.10;83.70
20911;DHT22;10615;42.702;23.314;2024-01-27T05:07:21;6.10;83.80
20911;DHT22;10615;42.702;23.314;2024-01-27T05:08:22;6.00;83.90
20911;DHT22;10615;42.702;23.314;2024-01-27T05:09:23;6.10;84.10
20911;DHT22;10615;42.702;23.314;2024-01-27T05:10:24;6.00;84.20
20911;DHT22;10615;42.702;23.314;2024-01-27T05:11:31;6.10;84.30
20911;DHT22;10615;42.702;23.314;2024-01-27T05:12:32;6.10;84.50
20911;DHT22;10615;42.702;23.314;2024-01-27T05:13:33;6.10;84.60
20911;DHT22;10615;42.702;23.314;2024-01-27T05:14:34;6.10;84.80
20911;DHT22;10615;42.702;23.314;2024-01-27T05:15:35;6.00;84.90
20911;DHT22;10615;42.702;23.314;2024-01-27T05:16:35;6.00;85.00
20911;DHT22;10615;42.702;23.314;2024-01-27T05:17:36;6.00;85.20
20911;DHT22;10615;42.702;23.314;2024-01-27T05:18:37;6.00;85.30
20911;DHT22;10615;42.702;23.314;2024-01-27T05:19:37;6.00;85.50
20911;DHT22;10615;42.702;23.314;2024-01-27T05:20:38;6.00;85.70
20911;DHT22;10615;42.702;23.314;2024-01-27T05:21:39;6.00;85.80
20911;DHT22;10615;42.702;23.314;2024-01-27T05:22:40;6.00;85.90
20911;DHT22;10615;42.702;23.314;2024-01-27T05:23:41;6.00;86.10
20911;DHT22;10615;42.702;23.314;2024-01-27T05:24:42;6.00;86.20
20911;DHT22;10615;42.702;23.314;2024-01-27T05:25:42;6.00;86.30
20911;DHT22;10615;42.702;23.314;2024-01-27T05:26:43;6.00;86.50
20911;DHT22;10615;42.702;23.314;2024-01-27T05:27:44;6.00;86.60
20911;DHT22;10615;42.702;23.314;2024-01-27T05:28:44;6.00;86.80
20911;DHT22;10615;42.702;23.314;2024-01-27T05:29:45;6.00;86.90
20911;DHT22;10615;42.702;23.314;2024-01-27T05:30:46;6.00;87.10
20911;DHT22;10615;42.702;23.314;2024-01-27T05:31:47;6.00;87.20
20911;DHT22;10615;42.702;23.314;2024-01-27T05:32:47;6.00;87.20
20911;DHT22;10615;42.702;23.314;2024-01-27T05:33:48;6.00;87.10
20911;DHT22;10615;42.702;23.314;2024-01-27T05:34:49;6.00;87.20
20911;DHT22;10615;42.702;23.314;2024-01-27T05:35:50;6.00;87.20
20911;DHT22;10615;42.702;23.314;2024-01-27T05:36:50;6.00;87.40
20911;DHT22;10615;42.702;23.314;2024-01-27T05:37:51;6.00;87.30
20911;DHT22;10615;42.702;23.314;2024-01-27T05:38:52;5.90;87.20
20911;DHT22;10615;42.702;23.314;2024-01-27T05:39:53;5.90;87.20
20911;DHT22;10615;42.702;23.314;2024-01-27T05:40:54;5.90;87.30
20911;DHT22;10615;42.702;23.314;2024-01-27T05:41:55;5.90;87.40
20911;DHT22;10615;42.702;23.314;2024-01-27T05:42:55;5.80;87.40
20911;DHT22;10615;42.702;23.314;2024-01-27T05:43:56;5.80;87.60
20911;DHT22;10615;42.702;23.314;2024-01-27T05:44:58;5.70;87.60
20911;DHT22;10615;42.702;23.314;2024-01-27T05:45:58;5.70;87.90
20911;DHT22;10615;42.702;23.314;2024-01-27T05:46:59;5.70;88.20
20911;DHT22;10615;42.702;23.314;2024-01-27T05:48:00;5.70;88.30
20911;DHT22;10615;42.702;23.314;2024-01-27T05:49:01;5.70;88.50
20911;DHT22;10615;42.702;23.314;2024-01-27T05:50:03;5.70;88.80
20911;DHT22;10615;42.702;23.314;2024-01-27T05:51:05;5.70;89.00
20911;DHT22;10615;42.702;23.314;2024-01-27T05:52:05;5.70;89.10
20911;DHT22;10615;42.702;23.314;2024-01-27T05:53:06;5.70;89.10
20911;DHT22;10615;42.702;23.314;2024-01-27T05:54:07;5.60;89.20
20911;DHT22;10615;42.702;23.314;2024-01-27T05:55:08;5.60;89.40
20911;DHT22;10615;42.702;23.314;2024-01-27T05:56:10;5.60;89.40
20911;DHT22;10615;42.702;23.314;2024-01-27T05:57:11;5.60;89.60
20911;DHT22;10615;42.702;23.314;2024-01-27T05:58:12;5.50;89.70
20911;DHT22;10615;42.702;23.314;2024-01-27T05:59:13;5.50;89.90
20911;DHT22;10615;42.702;23.314;2024-01-27T06:00:14;5.50;90.10
20911;DHT22;10615;42.702;23.314;2024-01-27T06:01:15;5.50;90.00
20911;DHT22;10615;42.702;23.314;2024-01-27T06:02:17;5.50;90.00
20911;DHT22;10615;42.702;23.314;2024-01-27T06:03:18;5.40;90.00
20911;DHT22;10615;42.702;23.314;2024-01-27T06:04:19;5.40;90.10
20911;DHT22;10615;42.702;23.314;2024-01-27T06:05:20;5.40;90.20
20911;DHT22;10615;42.702;23.314;2024-01-27T06:06:20;5.40;90.20
20911;DHT22;10615;42.702;23.314;2024-01-27T06:07:21;5.30;90.20
20911;DHT22;10615;42.702;23.314;2024-01-27T06:08:22;5.30;90.30
20911;DHT22;10615;42.702;23.314;2024-01-27T06:09:22;5.30;90.30
20911;DHT22;10615;42.702;23.314;2024-01-27T06:10:23;5.30;90.40
20911;DHT22;10615;42.702;23.314;2024-01-27T06:11:25;5.30;90.40
20911;DHT22;10615;42.702;23.314;2024-01-27T06:12:26;5.30;90.50
20911;DHT22;10615;42.702;23.314;2024-01-27T06:13:27;5.30;90.60
20911;DHT22;10615;42.702;23.314;2024-01-27T06:14:28;5.20;90.60
20911;DHT22;10615;42.702;23.314;2024-01-27T06:15:29;5.20;90.70
20911;DHT22;10615;42.702;23.314;2024-01-27T06:16:30;5.20;90.80
20911;DHT22;10615;42.702;23.314;2024-01-27T06:17:30;5.30;90.90
20911;DHT22;10615;42.702;23.314;2024-01-27T06:18:31;5.30;91.00
20911;DHT22;10615;42.702;23.314;2024-01-27T06:19:32;5.30;91.00
20911;DHT22;10615;42.702;23.314;2024-01-27T06:20:33;5.20;90.90
20911;DHT22;10615;42.702;23.314;2024-01-27T06:21:33;5.30;91.00
20911;DHT22;10615;42.702;23.314;2024-01-27T06:22:34;5.30;91.10
20911;DHT22;10615;42.702;23.314;2024-01-27T06:23:35;5.30;91.10
20911;DHT22;10615;42.702;23.314;2024-01-27T06:24:42;5.20;91.00